sensor_id;sensor_type;location;lat;lon;timestamp;pressure;altitude;pressure_sealevel;temperature;humidity
65276;BME280;51875;49.994;14.052;2023-10-13T00:00:38;98294.56;;;16.93;100.00
65276;BME280;51875;49.994;14.052;2023-10-13T00:03:17;98296.97;;;16.82;100.00
65276;BME280;51875;49.994;14.052;2023-10-13T00:05:46;98289.88;;;16.83;100.00
65276;BME280;51875;49.994;14.052;2023-10-13T00:08:04;98286.16;;;17.03;100.00
65276;BME280;51875;49.994;14.052;2023-10-13T00:10:32;98285.13;;;17.05;100.00
65276;BME280;51875;49.994;14.052;2023-10-13T00:13:03;98289.31;;;16.77;100.00
65276;BME280;51875;49.994;14.052;2023-10-13T00:15:21;98289.31;;;16.61;100.00
65276;BME280;51875;49.994;14.052;2023-10-13T00:17:50;98293.03;;;16.41;100.00
65276;BME280;51875;49.994;14.052;2023-10-13T00:20:29;98292.00;;;16.60;100.00
65276;BME280;51875;49.994;14.052;2023-10-13T00:22:26;98294.22;;;16.67;100.00
65276;BME280;51875;49.994;14.052;2023-10-13T00:24:27;98294.84;;;16.73;100.00
65276;BME280;51875;49.994;14.052;2023-10-13T00:26:25;98296.72;;;16.55;100.00
65276;BME280;51875;49.994;14.052;2023-10-13T00:28:29;98297.22;;;16.29;100.00
65276;BME280;51875;49.994;14.052;2023-10-13T00:30:54;98292.66;;;16.15;100.00
65276;BME280;51875;49.994;14.052;2023-10-13T00:32:46;98297.72;;;16.36;100.00
65276;BME280;51875;49.994;14.052;2023-10-13T00:34:37;98296.03;;;16.35;100.00
65276;BME280;51875;49.994;14.052;2023-10-13T00:36:22;98301.31;;;16.51;100.00
65276;BME280;51875;49.994;14.052;2023-10-13T00:38:16;98306.06;;;16.28;100.00
65276;BME280;51875;49.994;14.052;2023-10-13T00:40:46;98307.31;;;16.71;100.00
65276;BME280;51875;49.994;14.052;2023-10-13T00:42:28;98307.53;;;16.82;100.00
65276;BME280;51875;49.994;14.052;2023-10-13T00:44:39;98316.66;;;16.92;100.00
65276;BME280;51875;49.994;14.052;2023-10-13T00:47:04;98311.91;;;16.99;100.00
65276;BME280;51875;49.994;14.052;2023-10-13T00:49:37;98306.88;;;17.11;100.00
65276;BME280;51875;49.994;14.052;2023-10-13T00:51:47;98313.34;;;17.21;100.00
65276;BME280;51875;49.994;14.052;2023-10-13T00:54:24;98324.16;;;17.32;100.00
65276;BME280;51875;49.994;14.052;2023-10-13T00:56:54;98313.09;;;17.26;100.00
65276;BME280;51875;49.994;14.052;2023-10-13T01:01:08;98321.22;;;17.37;100.00
65276;BME280;51875;49.994;14.052;2023-10-13T01:03:24;98316.00;;;17.51;100.00
65276;BME280;51875;49.994;14.052;2023-10-13T01:05:20;98317.50;;;17.41;100.00
65276;BME280;51875;49.994;14.052;2023-10-13T01:06:40;98315.38;;;17.62;100.00
65276;BME280;51875;49.994;14.052;2023-10-13T01:15:37;98322.78;;;17.41;100.00
65276;BME280;51875;49.994;14.052;2023-10-13T01:17:01;98324.50;;;17.42;100.00
65276;BME280;51875;49.994;14.052;2023-10-13T01:18:23;98331.81;;;17.37;100.00
65276;BME280;51875;49.994;14.052;2023-10-13T01:19:43;98327.97;;;17.43;100.00
65276;BME280;51875;49.994;14.052;2023-10-13T01:21:42;98333.38;;;17.41;100.00
65276;BME280;51875;49.994;14.052;2023-10-13T01:27:09;98339.53;;;17.56;100.00
65276;BME280;51875;49.994;14.052;2023-10-13T01:33:02;98333.19;;;17.44;100.00
65276;BME280;51875;49.994;14.052;2023-10-13T01:35:41;98340.88;;;17.33;100.00
65276;BME280;51875;49.994;14.052;2023-10-13T01:38:09;98335.66;;;17.31;100.00
65276;BME280;51875;49.994;14.052;2023-10-13T01:40:53;98338.50;;;17.28;100.00
65276;BME280;51875;49.994;14.052;2023-10-13T01:42:43;98336.16;;;17.07;100.00
65276;BME280;51875;49.994;14.052;2023-10-13T01:44:41;98336.03;;;16.93;100.00
65276;BME280;51875;49.994;14.052;2023-10-13T01:46:33;98337.50;;;17.15;100.00
65276;BME280;51875;49.994;14.052;2023-10-13T01:48:27;98335.28;;;17.23;100.00
65276;BME280;51875;49.994;14.052;2023-10-13T01:50:38;98340.75;;;17.20;100.00
65276;BME280;51875;49.994;14.052;2023-10-13T02:15:15;98343.63;;;16.67;100.00
65276;BME280;51875;49.994;14.052;2023-10-13T02:16:39;98338.50;;;16.80;100.00
65276;BME280;51875;49.994;14.052;2023-10-13T02:19:27;98345.69;;;16.94;100.00
65276;BME280;51875;49.994;14.052;2023-10-13T02:20:47;98348.63;;;17.05;100.00
65276;BME280;51875;49.994;14.052;2023-10-13T02:22:09;98340.13;;;17.15;100.00
65276;BME280;51875;49.994;14.052;2023-10-13T02:23:43;98336.47;;;17.01;100.00
65276;BME280;51875;49.994;14.052;2023-10-13T02:25:17;98339.78;;;16.89;100.00
65276;BME280;51875;49.994;14.052;2023-10-13T02:26:50;98346.53;;;16.78;100.00
65276;BME280;51875;49.994;14.052;2023-10-13T02:28:12;98330.97;;;16.40;100.00
65276;BME280;51875;49.994;14.052;2023-10-13T02:29:31;98326.22;;;16.13;100.00
65276;BME280;51875;49.994;14.052;2023-10-13T02:31:00;98330.28;;;16.36;100.00
65276;BME280;51875;49.994;14.052;2023-10-13T02:32:20;98327.56;;;16.54;100.00
65276;BME280;51875;49.994;14.052;2023-10-13T02:33:36;98330.13;;;16.88;100.00
65276;BME280;51875;49.994;14.052;2023-10-13T02:35:00;98320.72;;;17.00;100.00
65276;BME280;51875;49.994;14.052;2023-10-13T02:36:25;98309.34;;;16.82;100.00
65276;BME280;51875;49.994;14.052;2023-10-13T02:37:51;98317.78;;;16.56;100.00
65276;BME280;51875;49.994;14.052;2023-10-13T02:39:12;98320.22;;;16.43;100.00
65276;BME280;51875;49.994;14.052;2023-10-13T02:40:35;98330.06;;;16.73;100.00
65276;BME280;51875;49.994;14.052;2023-10-13T02:41:58;98323.41;;;16.98;100.00
65276;BME280;51875;49.994;14.052;2023-10-13T02:43:14;98322.25;;;17.04;100.00
65276;BME280;51875;49.994;14.052;2023-10-13T02:44:36;98329.72;;;16.95;100.00
65276;BME280;51875;49.994;14.052;2023-10-13T02:45:55;98328.97;;;17.10;100.00
65276;BME280;51875;49.994;14.052;2023-10-13T02:47:14;98329.31;;;17.19;100.00
65276;BME280;51875;49.994;14.052;2023-10-13T03:02:42;98319.56;;;16.56;100.00
65276;BME280;51875;49.994;14.052;2023-10-13T03:05:34;98317.78;;;16.88;100.00
65276;BME280;51875;49.994;14.052;2023-10-13T03:23:30;98317.88;;;17.19;100.00
65276;BME280;51875;49.994;14.052;2023-10-13T03:25:38;98324.00;;;17.03;100.00
65276;BME280;51875;49.994;14.052;2023-10-13T03:28:11;98330.16;;;17.20;100.00
65276;BME280;51875;49.994;14.052;2023-10-13T03:30:05;98324.00;;;17.19;100.00
65276;BME280;51875;49.994;14.052;2023-10-13T03:31:40;98320.41;;;17.20;100.00
65276;BME280;51875;49.994;14.052;2023-10-13T03:33:25;98313.44;;;17.19;100.00
65276;BME280;51875;49.994;14.052;2023-10-13T03:35:14;98319.47;;;17.21;100.00
65276;BME280;51875;49.994;14.052;2023-10-13T03:37:12;98322.13;;;17.21;100.00
65276;BME280;51875;49.994;14.052;2023-10-13T03:38:56;98302.66;;;17.22;100.00
65276;BME280;51875;49.994;14.052;2023-10-13T03:40:26;98309.31;;;17.30;100.00
65276;BME280;51875;49.994;14.052;2023-10-13T03:42:08;98304.66;;;17.19;100.00
65276;BME280;51875;49.994;14.052;2023-10-13T03:43:44;98303.97;;;17.15;100.00
65276;BME280;51875;49.994;14.052;2023-10-13T03:45:10;98302.53;;;17.10;100.00
65276;BME280;51875;49.994;14.052;2023-10-13T03:46:34;98303.78;;;17.02;100.00
65276;BME280;51875;49.994;14.052;2023-10-13T03:47:52;98310.88;;;16.70;100.00
65276;BME280;51875;49.994;14.052;2023-10-13T03:49:10;98307.72;;;16.63;100.00
65276;BME280;51875;49.994;14.052;2023-10-13T03:50:31;98306.38;;;16.72;100.00
65276;BME280;51875;49.994;14.052;2023-10-13T03:51:48;98306.59;;;16.83;100.00
65276;BME280;51875;49.994;14.052;2023-10-13T03:53:20;98303.28;;;16.63;100.00
65276;BME280;51875;49.994;14.052;2023-10-13T03:55:57;98296.97;;;16.66;100.00
65276;BME280;51875;49.994;14.052;2023-10-13T03:58:20;98299.63;;;16.66;100.00
65276;BME280;51875;49.994;14.052;2023-10-13T04:00:41;98295.84;;;16.54;100.00
65276;BME280;51875;49.994;14.052;2023-10-13T04:02:39;98300.31;;;16.70;100.00
65276;BME280;51875;49.994;14.052;2023-10-13T04:04:20;98303.25;;;16.95;100.00
65276;BME280;51875;49.994;14.052;2023-10-13T04:05:55;98284.34;;;16.55;100.00
65276;BME280;51875;49.994;14.052;2023-10-13T04:07:26;98294.84;;;16.73;100.00
65276;BME280;51875;49.994;14.052;2023-10-13T04:09:17;98298.50;;;17.02;100.00
65276;BME280;51875;49.994;14.052;2023-10-13T04:11:20;98306.63;;;16.67;100.00
65276;BME280;51875;49.994;14.052;2023-10-13T04:13:11;98300.03;;;16.58;100.00
65276;BME280;51875;49.994;14.052;2023-10-13T04:15:00;98287.59;;;16.76;100.00
65276;BME280;51875;49.994;14.052;2023-10-13T04:16:39;98292.78;;;16.78;100.00
65276;BME280;51875;49.994;14.052;2023-10-13T04:19:23;98294.00;;;17.04;100.00
65276;BME280;51875;49.994;14.052;2023-10-13T04:22:09;98285.72;;;17.11;100.00
65276;BME280;51875;49.994;14.052;2023-10-13T04:39:00;98287.31;;;16.97;100.00
65276;BME280;51875;49.994;14.052;2023-10-13T04:51:22;98297.75;;;16.68;100.00
65276;BME280;51875;49.994;14.052;2023-10-13T04:53:42;98289.63;;;16.87;100.00
65276;BME280;51875;49.994;14.052;2023-10-13T04:56:22;98292.09;;;16.90;100.00
65276;BME280;51875;49.994;14.052;2023-10-13T04:58:33;98294.66;;;16.92;100.00
65276;BME280;51875;49.994;14.052;2023-10-13T05:00:39;98290.84;;;16.98;100.00
65276;BME280;51875;49.994;14.052;2023-10-13T05:02:49;98291.09;;;16.93;100.00
65276;BME280;51875;49.994;14.052;2023-10-13T05:05:29;98291.38;;;17.04;100.00
65276;BME280;51875;49.994;14.052;2023-10-13T05:07:51;98303.09;;;17.15;100.00
65276;BME280;51875;49.994;14.052;2023-10-13T05:13:08;98301.28;;;17.31;100.00
65276;BME280;51875;49.994;14.052;2023-10-13T05:15:52;98294.13;;;17.33;100.00
65276;BME280;51875;49.994;14.052;2023-10-13T05:18:13;98294.50;;;17.42;100.00
65276;BME280;51875;49.994;14.052;2023-10-13T05:19:58;98286.56;;;17.42;100.00
65276;BME280;51875;49.994;14.052;2023-10-13T05:21:47;98290.81;;;17.60;100.00
65276;BME280;51875;49.994;14.052;2023-10-13T05:27:59;98290.94;;;17.88;100.00
65276;BME280;51875;49.994;14.052;2023-10-13T05:29:34;98291.69;;;17.90;100.00
65276;BME280;51875;49.994;14.052;2023-10-13T05:31:12;98287.13;;;17.77;100.00
65276;BME280;51875;49.994;14.052;2023-10-13T05:32:46;98284.00;;;17.85;100.00
65276;BME280;51875;49.994;14.052;2023-10-13T05:34:22;98282.31;;;17.84;100.00
65276;BME280;51875;49.994;14.052;2023-10-13T05:35:57;98287.78;;;17.81;100.00
65276;BME280;51875;49.994;14.052;2023-10-13T05:37:31;98284.75;;;17.87;100.00
65276;BME280;51875;49.994;14.052;2023-10-13T05:39:07;98278.06;;;17.82;100.00
65276;BME280;51875;49.994;14.052;2023-10-13T05:41:00;98277.75;;;17.72;100.00
65276;BME280;51875;49.994;14.052;2023-10-13T05:42:35;98285.59;;;17.73;100.00
65276;BME280;51875;49.994;14.052;2023-10-13T05:44:11;98290.84;;;17.89;100.00
65276;BME280;51875;49.994;14.052;2023-10-13T05:45:45;98300.94;;;17.83;100.00
65276;BME280;51875;49.994;14.052;2023-10-13T05:47:21;98307.75;;;17.87;100.00
65276;BME280;51875;49.994;14.052;2023-10-13T05:49:01;98300.22;;;17.95;100.00
65276;BME280;51875;49.994;14.052;2023-10-13T05:50:47;98306.06;;;18.00;100.00
65276;BME280;51875;49.994;14.052;2023-10-13T05:52:49;98307.56;;;17.90;100.00
65276;BME280;51875;49.994;14.052;2023-10-13T05:54:37;98310.38;;;18.03;100.00
65276;BME280;51875;49.994;14.052;2023-10-13T05:56:33;98298.81;;;18.04;100.00
65276;BME280;51875;49.994;14.052;2023-10-13T05:58:25;98304.97;;;18.04;100.00
65276;BME280;51875;49.994;14.052;2023-10-13T06:00:10;98304.88;;;18.06;100.00
65276;BME280;51875;49.994;14.052;2023-10-13T06:02:10;98304.22;;;18.02;100.00
65276;BME280;51875;49.994;14.052;2023-10-13T06:03:51;98303.44;;;18.00;100.00
65276;BME280;51875;49.994;14.052;2023-10-13T06:05:50;98312.91;;;18.04;100.00
65276;BME280;51875;49.994;14.052;2023-10-13T06:08:04;98321.72;;;18.05;100.00
65276;BME280;51875;49.994;14.052;2023-10-13T06:10:00;98319.16;;;18.03;100.00
65276;BME280;51875;49.994;14.052;2023-10-13T06:12:13;98318.44;;;18.00;100.00
65276;BME280;51875;49.994;14.052;2023-10-13T06:14:32;98325.91;;;17.93;100.00
65276;BME280;51875;49.994;14.052;2023-10-13T06:16:28;98318.66;;;17.97;100.00
65276;BME280;51875;49.994;14.052;2023-10-13T06:18:19;98317.88;;;17.80;100.00
65276;BME280;51875;49.994;14.052;2023-10-13T06:20:26;98310.50;;;17.85;100.00
65276;BME280;51875;49.994;14.052;2023-10-13T06:22:41;98314.44;;;17.63;100.00
65276;BME280;51875;49.994;14.052;2023-10-13T06:24:30;98315.72;;;17.56;100.00
65276;BME280;51875;49.994;14.052;2023-10-13T06:26:25;98312.09;;;17.73;100.00
65276;BME280;51875;49.994;14.052;2023-10-13T06:31:14;98315.13;;;17.82;100.00
65276;BME280;51875;49.994;14.052;2023-10-13T06:33:09;98320.06;;;17.88;100.00
65276;BME280;51875;49.994;14.052;2023-10-13T06:34:47;98313.88;;;17.87;100.00
65276;BME280;51875;49.994;14.052;2023-10-13T06:36:44;98317.13;;;17.92;100.00
65276;BME280;51875;49.994;14.052;2023-10-13T06:38:24;98313.53;;;17.93;100.00
65276;BME280;51875;49.994;14.052;2023-10-13T06:40:03;98313.72;;;17.76;100.00
65276;BME280;51875;49.994;14.052;2023-10-13T06:41:54;98323.03;;;17.36;100.00
65276;BME280;51875;49.994;14.052;2023-10-13T06:43:23;98314.63;;;17.60;100.00
65276;BME280;51875;49.994;14.052;2023-10-13T06:45:23;98326.50;;;17.53;100.00
65276;BME280;51875;49.994;14.052;2023-10-13T06:47:30;98319.56;;;17.81;100.00
65276;BME280;51875;49.994;14.052;2023-10-13T06:49:27;98325.25;;;17.75;100.00
65276;BME280;51875;49.994;14.052;2023-10-13T06:51:25;98323.88;;;17.98;100.00
65276;BME280;51875;49.994;14.052;2023-10-13T06:53:08;98328.22;;;17.99;100.00
65276;BME280;51875;49.994;14.052;2023-10-13T06:54:40;98324.47;;;17.87;100.00
65276;BME280;51875;49.994;14.052;2023-10-13T06:56:39;98329.25;;;17.97;100.00
65276;BME280;51875;49.994;14.052;2023-10-13T06:58:31;98327.50;;;18.12;100.00
65276;BME280;51875;49.994;14.052;2023-10-13T07:00:11;98322.69;;;18.18;100.00
65276;BME280;51875;49.994;14.052;2023-10-13T07:01:55;98328.16;;;18.30;100.00
65276;BME280;51875;49.994;14.052;2023-10-13T07:03:47;98334.97;;;18.19;100.00
65276;BME280;51875;49.994;14.052;2023-10-13T07:05:34;98327.41;;;18.28;100.00
65276;BME280;51875;49.994;14.052;2023-10-13T07:07:39;98331.56;;;18.17;100.00
65276;BME280;51875;49.994;14.052;2023-10-13T07:09:46;98339.34;;;18.35;100.00
65276;BME280;51875;49.994;14.052;2023-10-13T07:11:58;98335.66;;;18.52;100.00
65276;BME280;51875;49.994;14.052;2023-10-13T07:13:46;98335.31;;;18.57;100.00
65276;BME280;51875;49.994;14.052;2023-10-13T07:15:26;98337.50;;;18.64;100.00
65276;BME280;51875;49.994;14.052;2023-10-13T07:17:11;98329.19;;;18.56;100.00
65276;BME280;51875;49.994;14.052;2023-10-13T07:19:04;98337.41;;;18.66;100.00
65276;BME280;51875;49.994;14.052;2023-10-13T07:20:37;98336.63;;;18.78;100.00
65276;BME280;51875;49.994;14.052;2023-10-13T07:22:00;98336.47;;;18.53;100.00
65276;BME280;51875;49.994;14.052;2023-10-13T07:23:34;98334.84;;;18.64;100.00
65276;BME280;51875;49.994;14.052;2023-10-13T07:25:03;98335.78;;;18.63;100.00
65276;BME280;51875;49.994;14.052;2023-10-13T07:26:23;98334.94;;;18.77;100.00
65276;BME280;51875;49.994;14.052;2023-10-13T07:28:06;98331.53;;;18.75;100.00
65276;BME280;51875;49.994;14.052;2023-10-13T07:29:40;98332.16;;;18.94;100.00
65276;BME280;51875;49.994;14.052;2023-10-13T07:30:58;98334.16;;;19.04;100.00
65276;BME280;51875;49.994;14.052;2023-10-13T07:32:29;98329.97;;;19.15;100.00
65276;BME280;51875;49.994;14.052;2023-10-13T07:34:15;98323.06;;;19.25;100.00
65276;BME280;51875;49.994;14.052;2023-10-13T07:36:08;98316.97;;;19.38;100.00
65276;BME280;51875;49.994;14.052;2023-10-13T07:38:17;98319.66;;;19.23;100.00
65276;BME280;51875;49.994;14.052;2023-10-13T07:40:00;98328.75;;;19.33;100.00
65276;BME280;51875;49.994;14.052;2023-10-13T07:41:42;98325.56;;;19.41;100.00
65276;BME280;51875;49.994;14.052;2023-10-13T07:43:26;98326.72;;;19.10;100.00
65276;BME280;51875;49.994;14.052;2023-10-13T07:45:14;98328.44;;;19.38;100.00
65276;BME280;51875;49.994;14.052;2023-10-13T07:47:02;98324.75;;;19.54;100.00
65276;BME280;51875;49.994;14.052;2023-10-13T07:48:40;98316.13;;;19.50;100.00
65276;BME280;51875;49.994;14.052;2023-10-13T07:50:30;98324.16;;;19.76;100.00
65276;BME280;51875;49.994;14.052;2023-10-13T07:52:23;98309.28;;;19.73;100.00
65276;BME280;51875;49.994;14.052;2023-10-13T07:54:13;98301.00;;;19.78;100.00
65276;BME280;51875;49.994;14.052;2023-10-13T07:55:56;98300.47;;;19.86;100.00
65276;BME280;51875;49.994;14.052;2023-10-13T07:57:33;98306.22;;;19.80;100.00
65276;BME280;51875;49.994;14.052;2023-10-13T07:58:49;98301.53;;;19.83;100.00
65276;BME280;51875;49.994;14.052;2023-10-13T08:00:11;98306.66;;;19.99;100.00
65276;BME280;51875;49.994;14.052;2023-10-13T08:01:44;98294.31;;;20.11;100.00
65276;BME280;51875;49.994;14.052;2023-10-13T08:03:01;98299.56;;;20.26;100.00
65276;BME280;51875;49.994;14.052;2023-10-13T08:04:33;98293.69;;;20.34;100.00
65276;BME280;51875;49.994;14.052;2023-10-13T08:05:56;98298.47;;;20.41;100.00
65276;BME280;51875;49.994;14.052;2023-10-13T08:07:42;98290.81;;;20.24;100.00
65276;BME280;51875;49.994;14.052;2023-10-13T08:09:02;98296.63;;;20.42;100.00
65276;BME280;51875;49.994;14.052;2023-10-13T08:10:45;98292.38;;;20.52;100.00
65276;BME280;51875;49.994;14.052;2023-10-13T08:12:05;98293.88;;;20.43;100.00
65276;BME280;51875;49.994;14.052;2023-10-13T08:13:29;98298.75;;;20.50;100.00
65276;BME280;51875;49.994;14.052;2023-10-13T08:14:46;98301.13;;;20.41;100.00
65276;BME280;51875;49.994;14.052;2023-10-13T08:16:07;98298.31;;;20.56;100.00
65276;BME280;51875;49.994;14.052;2023-10-13T08:17:28;98292.88;;;20.57;100.00
65276;BME280;51875;49.994;14.052;2023-10-13T08:19:07;98295.00;;;20.65;100.00
65276;BME280;51875;49.994;14.052;2023-10-13T08:20:29;98298.91;;;20.72;100.00
65276;BME280;51875;49.994;14.052;2023-10-13T08:21:59;98294.78;;;20.81;100.00
65276;BME280;51875;49.994;14.052;2023-10-13T08:23:25;98294.59;;;20.96;100.00
65276;BME280;51875;49.994;14.052;2023-10-13T08:25:16;98291.47;;;21.02;100.00
65276;BME280;51875;49.994;14.052;2023-10-13T08:27:16;98290.09;;;21.09;100.00
65276;BME280;51875;49.994;14.052;2023-10-13T08:28:47;98282.72;;;20.88;100.00
65276;BME280;51875;49.994;14.052;2023-10-13T08:30:11;98285.75;;;20.95;100.00
65276;BME280;51875;49.994;14.052;2023-10-13T08:31:45;98286.13;;;21.15;100.00
65276;BME280;51875;49.994;14.052;2023-10-13T08:33:20;98285.09;;;21.05;100.00
65276;BME280;51875;49.994;14.052;2023-10-13T08:34:49;98277.72;;;21.33;100.00
65276;BME280;51875;49.994;14.052;2023-10-13T08:36:52;98285.44;;;21.00;100.00
65276;BME280;51875;49.994;14.052;2023-10-13T08:38:11;98286.72;;;20.94;100.00
65276;BME280;51875;49.994;14.052;2023-10-13T08:39:33;98278.28;;;20.76;100.00
65276;BME280;51875;49.994;14.052;2023-10-13T08:41:09;98279.72;;;20.93;100.00
65276;BME280;51875;49.994;14.052;2023-10-13T08:42:32;98277.59;;;20.85;100.00
65276;BME280;51875;49.994;14.052;2023-10-13T08:44:02;98283.72;;;20.99;100.00
65276;BME280;51875;49.994;14.052;2023-10-13T08:45:24;98281.22;;;21.09;100.00
65276;BME280;51875;49.994;14.052;2023-10-13T08:46:41;98280.59;;;20.81;100.00
65276;BME280;51875;49.994;14.052;2023-10-13T08:48:21;98273.63;;;21.15;100.00
65276;BME280;51875;49.994;14.052;2023-10-13T08:49:47;98275.03;;;21.33;100.00
65276;BME280;51875;49.994;14.052;2023-10-13T08:51:08;98275.75;;;21.23;100.00
65276;BME280;51875;49.994;14.052;2023-10-13T08:52:45;98275.56;;;21.49;100.00
65276;BME280;51875;49.994;14.052;2023-10-13T08:54:17;98281.00;;;21.36;100.00
65276;BME280;51875;49.994;14.052;2023-10-13T08:56:14;98279.94;;;21.39;100.00
65276;BME280;51875;49.994;14.052;2023-10-13T08:57:50;98274.63;;;21.50;100.00
65276;BME280;51875;49.994;14.052;2023-10-13T08:59:11;98278.22;;;21.38;100.00
65276;BME280;51875;49.994;14.052;2023-10-13T09:00:42;98269.63;;;21.70;100.00
65276;BME280;51875;49.994;14.052;2023-10-13T09:02:27;98276.75;;;21.34;100.00
65276;BME280;51875;49.994;14.052;2023-10-13T09:04:19;98262.91;;;21.64;100.00
65276;BME280;51875;49.994;14.052;2023-10-13T09:05:50;98271.59;;;21.79;100.00
65276;BME280;51875;49.994;14.052;2023-10-13T09:07:43;98272.03;;;21.73;100.00
65276;BME280;51875;49.994;14.052;2023-10-13T09:09:09;98275.66;;;21.36;100.00
65276;BME280;51875;49.994;14.052;2023-10-13T09:10:42;98273.25;;;21.69;100.00
65276;BME280;51875;49.994;14.052;2023-10-13T09:12:25;98263.69;;;21.78;97.40
65276;BME280;51875;49.994;14.052;2023-10-13T09:13:51;98266.97;;;21.93;98.17
65276;BME280;51875;49.994;14.052;2023-10-13T09:15:09;98259.72;;;22.18;97.37
65276;BME280;51875;49.994;14.052;2023-10-13T09:16:28;98262.78;;;22.01;97.78
65276;BME280;51875;49.994;14.052;2023-10-13T09:17:55;98259.06;;;21.68;99.35
65276;BME280;51875;49.994;14.052;2023-10-13T09:19:30;98266.38;;;21.89;95.95
65276;BME280;51875;49.994;14.052;2023-10-13T09:20:59;98267.97;;;22.03;95.27
65276;BME280;51875;49.994;14.052;2023-10-13T09:22:34;98265.78;;;21.97;95.52
65276;BME280;51875;49.994;14.052;2023-10-13T09:23:54;98264.19;;;21.94;94.11
65276;BME280;51875;49.994;14.052;2023-10-13T09:25:34;98265.56;;;22.23;93.84
65276;BME280;51875;49.994;14.052;2023-10-13T09:27:00;98261.66;;;21.81;96.85
65276;BME280;51875;49.994;14.052;2023-10-13T09:28:20;98265.53;;;21.89;95.11
65276;BME280;51875;49.994;14.052;2023-10-13T09:29:40;98264.69;;;21.88;94.44
65276;BME280;51875;49.994;14.052;2023-10-13T09:31:02;98266.88;;;21.94;93.60
65276;BME280;51875;49.994;14.052;2023-10-13T09:32:40;98256.69;;;22.11;92.22
65276;BME280;51875;49.994;14.052;2023-10-13T09:34:21;98258.75;;;21.84;91.81
65276;BME280;51875;49.994;14.052;2023-10-13T09:35:49;98250.75;;;21.84;90.22
65276;BME280;51875;49.994;14.052;2023-10-13T09:37:32;98258.50;;;21.87;88.24
65276;BME280;51875;49.994;14.052;2023-10-13T09:39:04;98256.47;;;22.03;87.57
65276;BME280;51875;49.994;14.052;2023-10-13T09:40:41;98259.94;;;21.92;87.27
65276;BME280;51875;49.994;14.052;2023-10-13T09:42:08;98260.56;;;21.95;86.51
65276;BME280;51875;49.994;14.052;2023-10-13T09:43:41;98262.28;;;22.19;85.70
65276;BME280;51875;49.994;14.052;2023-10-13T09:44:59;98253.56;;;22.17;84.40
65276;BME280;51875;49.994;14.052;2023-10-13T09:46:20;98259.00;;;22.27;82.50
65276;BME280;51875;49.994;14.052;2023-10-13T09:47:44;98258.28;;;22.25;82.85
65276;BME280;51875;49.994;14.052;2023-10-13T09:49:13;98256.22;;;22.17;82.15
65276;BME280;51875;49.994;14.052;2023-10-13T09:50:31;98248.59;;;22.12;83.25
65276;BME280;51875;49.994;14.052;2023-10-13T09:51:54;98245.91;;;22.12;81.64
65276;BME280;51875;49.994;14.052;2023-10-13T09:53:21;98248.09;;;22.19;82.23
65276;BME280;51875;49.994;14.052;2023-10-13T09:54:40;98240.94;;;22.19;81.77
65276;BME280;51875;49.994;14.052;2023-10-13T09:56:25;98247.34;;;22.39;81.62
65276;BME280;51875;49.994;14.052;2023-10-13T09:57:53;98252.22;;;22.23;78.77
65276;BME280;51875;49.994;14.052;2023-10-13T09:59:19;98246.91;;;22.23;79.61
65276;BME280;51875;49.994;14.052;2023-10-13T10:00:50;98247.97;;;22.43;78.02
65276;BME280;51875;49.994;14.052;2023-10-13T10:02:25;98247.84;;;22.33;76.35
65276;BME280;51875;49.994;14.052;2023-10-13T10:03:44;98245.31;;;22.32;77.41
65276;BME280;51875;49.994;14.052;2023-10-13T10:05:06;98244.81;;;22.26;77.02
65276;BME280;51875;49.994;14.052;2023-10-13T10:06:37;98237.31;;;22.20;75.93
65276;BME280;51875;49.994;14.052;2023-10-13T10:08:04;98245.66;;;22.38;73.58
65276;BME280;51875;49.994;14.052;2023-10-13T10:09:27;98247.13;;;22.20;76.24
65276;BME280;51875;49.994;14.052;2023-10-13T10:13:01;98235.13;;;22.03;75.44
65276;BME280;51875;49.994;14.052;2023-10-13T10:16:10;98232.34;;;22.27;74.80
65276;BME280;51875;49.994;14.052;2023-10-13T10:17:30;98232.59;;;22.12;74.75
65276;BME280;51875;49.994;14.052;2023-10-13T10:19:00;98227.72;;;22.40;74.00
65276;BME280;51875;49.994;14.052;2023-10-13T10:20:28;98227.56;;;22.65;74.20
65276;BME280;51875;49.994;14.052;2023-10-13T10:22:04;98223.25;;;22.85;72.69
65276;BME280;51875;49.994;14.052;2023-10-13T10:23:31;98220.50;;;22.75;73.19
65276;BME280;51875;49.994;14.052;2023-10-13T10:25:00;98223.94;;;22.98;71.39
65276;BME280;51875;49.994;14.052;2023-10-13T10:26:18;98228.25;;;22.78;71.40
65276;BME280;51875;49.994;14.052;2023-10-13T10:27:37;98230.56;;;22.83;69.98
65276;BME280;51875;49.994;14.052;2023-10-13T10:28:53;98224.81;;;22.99;70.54
65276;BME280;51875;49.994;14.052;2023-10-13T10:30:10;98229.81;;;22.92;70.14
65276;BME280;51875;49.994;14.052;2023-10-13T10:31:31;98221.41;;;23.18;67.81
65276;BME280;51875;49.994;14.052;2023-10-13T10:32:54;98222.16;;;23.20;67.59
65276;BME280;51875;49.994;14.052;2023-10-13T10:34:15;98222.16;;;23.20;69.37
65276;BME280;51875;49.994;14.052;2023-10-13T10:35:42;98220.13;;;23.12;70.77
65276;BME280;51875;49.994;14.052;2023-10-13T10:36:58;98212.16;;;23.55;67.82
65276;BME280;51875;49.994;14.052;2023-10-13T10:38:18;98207.53;;;23.36;68.47
65276;BME280;51875;49.994;14.052;2023-10-13T10:39:48;98202.84;;;23.28;69.79
65276;BME280;51875;49.994;14.052;2023-10-13T10:41:06;98209.34;;;23.56;68.55
65276;BME280;51875;49.994;14.052;2023-10-13T10:42:28;98206.25;;;24.14;66.83
65276;BME280;51875;49.994;14.052;2023-10-13T10:43:44;98203.22;;;24.28;64.97
65276;BME280;51875;49.994;14.052;2023-10-13T10:45:09;98199.81;;;24.77;64.32